createdAt,value
2022-11-19T00:00:12.639Z,4.61
2022-11-19T00:02:39.688Z,4.61
2022-11-19T00:05:06.904Z,4.60
2022-11-19T00:07:34.077Z,4.61
2022-11-19T00:10:01.169Z,4.60
2022-11-19T00:12:47.085Z,4.61
2022-11-19T00:15:14.610Z,4.62
2022-11-19T00:17:41.668Z,4.60
2022-11-19T00:20:08.986Z,4.59
2022-11-19T00:22:36.052Z,4.59
2022-11-19T00:25:03.664Z,4.58
2022-11-19T00:27:30.869Z,4.56
2022-11-19T00:29:57.937Z,4.54
2022-11-19T00:32:25.013Z,4.51
2022-11-19T00:34:52.139Z,4.46
2022-11-19T00:37:19.373Z,4.45
2022-11-19T00:39:46.463Z,4.43
2022-11-19T00:42:13.553Z,4.39
2022-11-19T00:44:40.701Z,4.38
2022-11-19T00:47:07.813Z,4.36
2022-11-19T00:49:34.878Z,4.34
2022-11-19T00:52:02.093Z,4.31
2022-11-19T00:54:29.132Z,4.30
2022-11-19T00:56:56.159Z,4.26
2022-11-19T00:59:23.334Z,4.22
2022-11-19T01:01:50.698Z,4.19
2022-11-19T01:04:17.800Z,4.19
2022-11-19T01:06:45.133Z,4.23
2022-11-19T01:09:12.130Z,4.32
2022-11-19T01:11:39.173Z,4.29
2022-11-19T01:14:07.296Z,4.21
2022-11-19T01:16:36.708Z,4.14
2022-11-19T01:19:04.589Z,4.04
2022-11-19T01:21:32.709Z,3.95
2022-11-19T01:24:00.301Z,3.88
2022-11-19T01:26:27.729Z,3.86
2022-11-19T01:28:55.275Z,3.85
2022-11-19T01:31:23.691Z,3.82
2022-11-19T01:33:50.778Z,3.80
2022-11-19T01:36:19.331Z,3.80
2022-11-19T01:38:50.799Z,3.80
2022-11-19T01:41:19.667Z,3.83
2022-11-19T01:43:51.346Z,3.82
2022-11-19T01:46:19.511Z,3.67
2022-11-19T01:48:49.370Z,3.60
2022-11-19T01:51:22.922Z,3.64
2022-11-19T01:53:51.602Z,3.60
2022-11-19T01:56:20.531Z,3.49
2022-11-19T01:58:49.849Z,3.43
2022-11-19T02:01:18.922Z,3.42
2022-11-19T02:03:46.603Z,3.43
2022-11-19T02:06:13.605Z,3.40
2022-11-19T02:08:43.520Z,3.42
2022-11-19T02:11:17.816Z,3.28
2022-11-19T02:13:55.858Z,3.19
2022-11-19T02:16:38.554Z,3.12
2022-11-19T02:19:17.630Z,2.91
2022-11-19T02:21:54.093Z,2.71
2022-11-19T02:24:37.283Z,2.55
2022-11-19T02:27:23.092Z,2.49
2022-11-19T02:30:10.440Z,2.64
2022-11-19T02:32:46.378Z,2.73
2022-11-19T02:35:16.529Z,2.73
2022-11-19T02:37:47.628Z,2.73
2022-11-19T02:40:26.417Z,2.75
2022-11-19T02:42:59.425Z,2.80
2022-11-19T02:45:35.605Z,2.79
2022-11-19T02:48:11.944Z,2.86
2022-11-19T02:50:48.211Z,2.84
2022-11-19T02:53:15.301Z,2.88
2022-11-19T02:56:08.261Z,2.78
2022-11-19T02:58:56.237Z,2.80
2022-11-19T03:01:43.041Z,2.84
2022-11-19T03:04:29.567Z,2.72
2022-11-19T03:07:09.485Z,2.64
2022-11-19T03:09:39.494Z,2.48
2022-11-19T03:12:13.999Z,2.35
2022-11-19T03:15:02.837Z,2.16
2022-11-19T03:17:38.561Z,1.91
2022-11-19T03:20:11.652Z,1.92
2022-11-19T03:22:58.118Z,1.91
2022-11-19T03:25:35.356Z,2.02
2022-11-19T03:28:05.272Z,1.85
2022-11-19T03:30:32.502Z,1.91
2022-11-19T03:33:02.695Z,1.82
2022-11-19T03:35:32.809Z,1.79
2022-11-19T03:38:03.032Z,1.88
2022-11-19T03:40:31.817Z,1.90
2022-11-19T03:43:00.858Z,1.96
2022-11-19T03:45:30.056Z,1.82
2022-11-19T03:47:57.462Z,1.76
2022-11-19T03:50:37.823Z,1.65
2022-11-19T03:53:05.199Z,1.65
2022-11-19T03:55:37.911Z,1.52
2022-11-19T03:58:06.043Z,1.54
2022-11-19T04:00:33.461Z,1.61
2022-11-19T04:03:00.585Z,1.59
2022-11-19T04:05:27.606Z,1.41
2022-11-19T04:07:54.643Z,1.40
2022-11-19T04:10:21.784Z,1.51
2022-11-19T04:12:48.864Z,1.41
2022-11-19T04:15:15.937Z,1.46
2022-11-19T04:17:43.069Z,1.35
2022-11-19T04:20:10.267Z,1.35
2022-11-19T04:22:37.348Z,1.24
2022-11-19T04:25:04.641Z,1.29
2022-11-19T04:27:31.860Z,1.24
2022-11-19T04:29:59.113Z,1.31
2022-11-19T04:32:26.206Z,1.35
2022-11-19T04:34:53.337Z,1.43
2022-11-19T04:37:20.447Z,1.27
2022-11-19T04:39:47.497Z,1.20
2022-11-19T04:42:14.633Z,1.20
2022-11-19T04:44:41.766Z,1.18
2022-11-19T04:47:08.769Z,1.08
2022-11-19T04:49:35.818Z,1.20
2022-11-19T04:52:02.889Z,1.05
2022-11-19T04:54:29.957Z,1.03
2022-11-19T04:56:56.970Z,1.19
2022-11-19T04:59:24.007Z,1.10
2022-11-19T05:01:51.564Z,1.18
2022-11-19T05:04:19.667Z,1.07
2022-11-19T05:06:46.686Z,0.89
2022-11-19T05:09:13.772Z,0.79
2022-11-19T05:11:40.897Z,0.72
2022-11-19T05:14:07.986Z,0.89
2022-11-19T05:16:35.016Z,0.82
2022-11-19T05:19:02.067Z,0.73
2022-11-19T05:21:29.175Z,0.84
2022-11-19T05:23:56.255Z,0.84
2022-11-19T05:26:23.336Z,0.87
2022-11-19T05:28:50.345Z,0.77
2022-11-19T05:31:17.407Z,0.68
2022-11-19T05:33:44.446Z,0.76
2022-11-19T05:36:11.548Z,0.80
2022-11-19T05:38:38.646Z,0.73
2022-11-19T05:41:05.816Z,0.88
2022-11-19T05:43:32.906Z,0.88
2022-11-19T05:46:00.803Z,0.94
2022-11-19T05:48:28.381Z,0.98
2022-11-19T05:50:55.712Z,0.91
2022-11-19T05:53:22.759Z,0.98
2022-11-19T05:55:49.796Z,0.92
2022-11-19T05:58:19.507Z,0.90
2022-11-19T06:00:48.470Z,0.83
2022-11-19T06:03:15.662Z,0.90
2022-11-19T06:05:42.755Z,0.94
2022-11-19T06:08:09.850Z,0.71
2022-11-19T06:10:36.887Z,0.70
2022-11-19T06:13:03.931Z,0.60
2022-11-19T06:15:30.954Z,0.52
2022-11-19T06:17:58.179Z,0.42
2022-11-19T06:20:25.250Z,0.51
2022-11-19T06:22:52.378Z,0.55
2022-11-19T06:25:19.456Z,0.71
2022-11-19T06:27:46.620Z,0.77
2022-11-19T06:30:14.247Z,0.72
2022-11-19T06:32:41.395Z,0.67
2022-11-19T06:35:08.720Z,0.68
2022-11-19T06:37:36.053Z,0.63
2022-11-19T06:40:03.404Z,0.59
2022-11-19T06:42:36.453Z,0.54
2022-11-19T06:45:06.335Z,0.47
2022-11-19T06:47:33.617Z,0.50
2022-11-19T06:50:00.729Z,0.55
2022-11-19T06:52:28.318Z,0.45
2022-11-19T06:54:55.442Z,0.47
2022-11-19T06:57:22.543Z,0.49
2022-11-19T06:59:49.562Z,0.34
2022-11-19T07:02:21.291Z,0.40
2022-11-19T07:04:48.813Z,0.42
2022-11-19T07:07:15.955Z,0.49
2022-11-19T07:09:43.096Z,0.54
2022-11-19T07:12:10.202Z,0.39
2022-11-19T07:14:37.337Z,0.43
2022-11-19T07:17:05.332Z,0.35
2022-11-19T07:19:32.391Z,0.29
2022-11-19T07:21:59.477Z,0.28
2022-11-19T07:24:26.757Z,0.21
2022-11-19T07:26:54.866Z,0.28
2022-11-19T07:29:22.610Z,0.33
2022-11-19T07:31:50.773Z,0.36
2022-11-19T07:34:17.935Z,0.48
2022-11-19T07:36:45.562Z,0.57
2022-11-19T07:39:12.840Z,0.52
2022-11-19T07:41:58.693Z,0.41
2022-11-19T07:44:25.754Z,0.22
2022-11-19T07:46:53.120Z,0.21
2022-11-19T07:49:21.377Z,0.21
2022-11-19T07:51:48.780Z,0.08
2022-11-19T07:54:16.223Z,0.21
2022-11-19T07:56:43.227Z,0.20
2022-11-19T07:59:10.649Z,0.06
2022-11-19T08:01:38.096Z,0.10
2022-11-19T08:04:05.412Z,-0.01
2022-11-19T08:06:34.486Z,0.02
2022-11-19T08:09:02.352Z,0.02
2022-11-19T08:11:29.833Z,0.18
2022-11-19T08:13:58.392Z,0.10
2022-11-19T08:16:44.050Z,0.03
2022-11-19T08:19:13.178Z,-0.05
2022-11-19T08:21:41.197Z,0.06
2022-11-19T08:24:09.104Z,0.05
2022-11-19T08:26:36.471Z,0.05
2022-11-19T08:29:03.995Z,-0.02
2022-11-19T08:31:31.135Z,0.04
2022-11-19T08:33:58.251Z,-0.08
2022-11-19T08:36:25.274Z,-0.06
2022-11-19T08:38:52.380Z,-0.26
2022-11-19T08:41:38.469Z,-0.34
2022-11-19T08:44:05.614Z,-0.43
2022-11-19T08:46:32.669Z,-0.51
2022-11-19T08:48:59.716Z,-0.53
2022-11-19T08:51:26.802Z,-0.46
2022-11-19T08:53:53.895Z,-0.51
2022-11-19T08:56:21.208Z,-0.60
2022-11-19T08:58:48.707Z,-0.52
2022-11-19T09:01:17.378Z,-0.43
2022-11-19T09:03:44.661Z,-0.51
2022-11-19T09:06:12.042Z,-0.43
2022-11-19T09:08:39.716Z,-0.44
2022-11-19T09:11:07.746Z,-0.33
2022-11-19T09:13:34.907Z,-0.32
2022-11-19T09:16:02.155Z,-0.34
2022-11-19T09:18:29.207Z,-0.37
2022-11-19T09:20:56.780Z,-0.30
2022-11-19T09:23:24.784Z,-0.33
2022-11-19T09:26:02.248Z,-0.36
2022-11-19T09:28:30.471Z,-0.25
2022-11-19T09:30:58.426Z,-0.32
2022-11-19T09:33:26.287Z,-0.40
2022-11-19T09:35:53.370Z,-0.37
2022-11-19T09:38:20.436Z,-0.31
2022-11-19T09:40:49.419Z,-0.23
2022-11-19T09:43:22.815Z,-0.36
2022-11-19T09:45:55.825Z,-0.40
2022-11-19T09:48:29.182Z,-0.35
2022-11-19T09:51:16.031Z,-0.40
2022-11-19T09:53:53.314Z,-0.45
2022-11-19T09:56:28.172Z,-0.35
2022-11-19T09:58:56.765Z,-0.40
2022-11-19T10:01:25.643Z,-0.24
2022-11-19T10:03:53.781Z,-0.21
2022-11-19T10:06:36.307Z,-0.19
2022-11-19T10:09:09.550Z,-0.23
2022-11-19T10:11:54.265Z,-0.29
2022-11-19T10:14:24.305Z,-0.35
2022-11-19T10:17:05.275Z,-0.45
2022-11-19T10:20:07.907Z,-0.35
2022-11-19T10:22:38.585Z,-0.42
2022-11-19T10:25:15.951Z,-0.37
2022-11-19T10:27:42.980Z,-0.33
2022-11-19T10:30:15.088Z,-0.32
2022-11-19T10:33:00.336Z,-0.34
2022-11-19T10:35:31.276Z,-0.34
2022-11-19T10:38:00.473Z,-0.35
2022-11-19T10:40:32.879Z,-0.35
2022-11-19T10:43:23.106Z,-0.23
2022-11-19T10:45:50.801Z,-0.27
2022-11-19T10:48:22.271Z,-0.43
2022-11-19T10:50:49.802Z,-0.48
2022-11-19T10:53:36.220Z,-0.46
2022-11-19T10:56:04.761Z,-0.54
2022-11-19T10:58:39.048Z,-0.47
2022-11-19T11:01:16.401Z,-0.58
2022-11-19T11:03:49.433Z,-0.58
2022-11-19T11:06:16.849Z,-0.52
2022-11-19T11:08:51.751Z,-0.51
2022-11-19T11:11:52.994Z,-0.47
2022-11-19T11:14:39.893Z,-0.57
2022-11-19T11:17:27.297Z,-0.46
2022-11-19T11:19:57.231Z,-0.53
2022-11-19T11:22:25.287Z,-0.53
2022-11-19T11:24:52.455Z,-0.50
2022-11-19T11:27:19.846Z,-0.50
2022-11-19T11:29:46.972Z,-0.46
2022-11-19T11:32:26.903Z,-0.57
2022-11-19T11:34:53.967Z,-0.71
2022-11-19T11:37:21.400Z,-0.71
2022-11-19T11:39:50.884Z,-0.76
2022-11-19T11:42:18.820Z,-0.57
2022-11-19T11:44:53.950Z,-0.59
2022-11-19T11:47:23.432Z,-0.53
2022-11-19T11:50:09.567Z,-0.50
2022-11-19T11:52:39.831Z,-0.52
2022-11-19T11:55:12.513Z,-0.36
2022-11-19T11:57:51.189Z,-0.32
2022-11-19T12:00:30.526Z,-0.38
2022-11-19T12:03:00.585Z,-0.33
2022-11-19T12:05:29.499Z,-0.26
2022-11-19T12:08:15.466Z,-0.35
2022-11-19T12:10:50.372Z,-0.48
2022-11-19T12:13:31.862Z,-0.56
2022-11-19T12:16:02.053Z,-0.40
2022-11-19T12:18:43.382Z,-0.32
2022-11-19T12:21:12.207Z,-0.40
2022-11-19T12:23:48.740Z,-0.40
2022-11-19T12:26:31.334Z,-0.24
2022-11-19T12:29:10.108Z,-0.35
2022-11-19T12:31:37.220Z,-0.30
2022-11-19T12:34:30.029Z,-0.42
2022-11-19T12:37:09.386Z,-0.38
2022-11-19T12:39:56.755Z,-0.38
2022-11-19T12:42:23.765Z,-0.47
2022-11-19T12:44:58.516Z,-0.59
2022-11-19T12:47:27.798Z,-0.59
2022-11-19T12:50:01.027Z,-0.63
2022-11-19T12:52:41.459Z,-0.58
2022-11-19T12:55:11.270Z,-0.55
2022-11-19T12:57:38.229Z,-0.55
2022-11-19T13:00:39.629Z,-0.54
2022-11-19T13:03:15.031Z,-0.45
2022-11-19T13:05:45.386Z,-0.54
2022-11-19T13:08:16.584Z,-0.49
2022-11-19T13:10:47.981Z,-0.48
2022-11-19T13:13:17.191Z,-0.51
2022-11-19T13:15:47.059Z,-0.48
2022-11-19T13:18:16.310Z,-0.48
2022-11-19T13:21:12.812Z,-0.50
2022-11-19T13:23:42.466Z,-0.57
2022-11-19T13:26:11.202Z,-0.59
2022-11-19T13:28:47.529Z,-0.56
2022-11-19T13:31:37.964Z,-0.58
2022-11-19T13:34:14.412Z,-0.52
2022-11-19T13:37:00.299Z,-0.60
2022-11-19T13:39:31.762Z,-0.53
2022-11-19T13:42:19.045Z,-0.60
2022-11-19T13:44:46.271Z,-0.50
2022-11-19T13:47:22.498Z,-0.58
2022-11-19T13:49:53.502Z,-0.54
2022-11-19T13:52:23.713Z,-0.55
2022-11-19T13:54:51.050Z,-0.55
2022-11-19T13:57:30.374Z,-0.52
2022-11-19T13:59:59.677Z,-0.47
2022-11-19T14:02:46.583Z,-0.46
2022-11-19T14:05:27.753Z,-0.46
2022-11-19T14:08:00.710Z,-0.57
2022-11-19T14:10:27.758Z,-0.52
2022-11-19T14:13:14.641Z,-0.54
2022-11-19T14:16:00.672Z,-0.56
2022-11-19T14:19:06.813Z,-0.58
2022-11-19T14:21:52.605Z,-0.57
2022-11-19T14:24:44.631Z,-0.54
2022-11-19T14:27:21.014Z,-0.42
2022-11-19T14:29:48.057Z,-0.41
2022-11-19T14:32:15.156Z,-0.42
2022-11-19T14:35:08.857Z,-0.46
2022-11-19T14:37:45.390Z,-0.41
2022-11-19T14:40:12.401Z,-0.37
2022-11-19T14:43:24.438Z,-0.33
2022-11-19T14:46:00.860Z,-0.33
2022-11-19T14:48:28.883Z,-0.26
2022-11-19T14:51:06.074Z,-0.16
2022-11-19T14:53:36.537Z,0.07
2022-11-19T14:56:14.268Z,0.01
2022-11-19T14:58:59.814Z,-0.11
2022-11-19T15:01:26.858Z,-0.12
2022-11-19T15:03:55.943Z,-0.08
2022-11-19T15:06:23.485Z,-0.18
2022-11-19T15:08:56.919Z,-0.16
2022-11-19T15:11:24.032Z,-0.13
2022-11-19T15:14:11.498Z,-0.18
2022-11-19T15:16:38.759Z,-0.28
2022-11-19T15:19:26.061Z,-0.25
2022-11-19T15:22:00.123Z,-0.18
2022-11-19T15:24:32.521Z,-0.24
2022-11-19T15:26:59.530Z,-0.25
2022-11-19T15:29:45.329Z,-0.27
2022-11-19T15:32:12.372Z,-0.26
2022-11-19T15:35:12.241Z,-0.26
2022-11-19T15:37:54.327Z,-0.27
2022-11-19T15:40:23.944Z,-0.25
2022-11-19T15:43:04.461Z,-0.26
2022-11-19T15:45:36.436Z,-0.06
2022-11-19T15:48:13.004Z,-0.15
2022-11-19T15:50:42.400Z,-0.07
2022-11-19T15:53:17.844Z,-0.15
2022-11-19T15:55:59.626Z,-0.10
2022-11-19T15:58:30.341Z,-0.08
2022-11-19T16:00:57.449Z,-0.16
2022-11-19T16:03:24.590Z,-0.13
2022-11-19T16:06:00.621Z,-0.09
2022-11-19T16:08:28.308Z,-0.11
2022-11-19T16:11:20.266Z,-0.10
2022-11-19T16:14:10.711Z,-0.10
2022-11-19T16:16:57.154Z,-0.12
2022-11-19T16:19:24.538Z,-0.14
2022-11-19T16:21:54.355Z,-0.14
2022-11-19T16:24:40.550Z,-0.14
2022-11-19T16:27:10.009Z,-0.22
2022-11-19T16:29:40.507Z,-0.27
2022-11-19T16:32:08.276Z,-0.18
2022-11-19T16:34:37.071Z,-0.23
2022-11-19T16:37:04.229Z,-0.26
2022-11-19T16:39:31.986Z,-0.23
2022-11-19T16:42:16.644Z,-0.34
2022-11-19T16:44:45.775Z,-0.28
2022-11-19T16:47:32.090Z,-0.32
2022-11-19T16:50:03.628Z,-0.33
2022-11-19T16:52:43.517Z,-0.41
2022-11-19T16:55:16.573Z,-0.37
2022-11-19T16:57:51.963Z,-0.34
2022-11-19T17:00:20.675Z,-0.35
2022-11-19T17:02:48.308Z,-0.38
2022-11-19T17:05:19.756Z,-0.40
2022-11-19T17:07:51.472Z,-0.33
2022-11-19T17:10:24.296Z,-0.36
2022-11-19T17:13:14.825Z,-0.41
2022-11-19T17:15:42.929Z,-0.32
2022-11-19T17:18:09.983Z,-0.35
2022-11-19T17:20:37.012Z,-0.25
2022-11-19T17:23:13.892Z,-0.15
2022-11-19T17:26:01.103Z,-0.19
2022-11-19T17:28:36.376Z,-0.21
2022-11-19T17:31:15.895Z,-0.27
2022-11-19T17:33:50.682Z,-0.33
2022-11-19T17:36:17.845Z,-0.26
2022-11-19T17:38:44.903Z,-0.25
2022-11-19T17:41:14.448Z,-0.27
2022-11-19T17:44:00.249Z,-0.29
2022-11-19T17:46:28.879Z,-0.23
2022-11-19T17:48:56.911Z,-0.19
2022-11-19T17:51:25.235Z,-0.21
2022-11-19T17:53:52.486Z,-0.27
2022-11-19T17:56:19.731Z,-0.28
2022-11-19T17:58:47.363Z,-0.35
2022-11-19T18:01:15.230Z,-0.32
2022-11-19T18:03:42.350Z,-0.38
2022-11-19T18:06:13.817Z,-0.40
2022-11-19T18:08:42.088Z,-0.34
2022-11-19T18:11:13.556Z,-0.29
2022-11-19T18:13:42.183Z,-0.20
2022-11-19T18:16:12.073Z,-0.21
2022-11-19T18:18:39.206Z,-0.21
2022-11-19T18:21:08.971Z,-0.24
2022-11-19T18:23:36.025Z,-0.28
2022-11-19T18:26:03.084Z,-0.40
2022-11-19T18:28:30.127Z,-0.36
2022-11-19T18:30:57.733Z,-0.42
2022-11-19T18:33:24.796Z,-0.50
2022-11-19T18:35:52.137Z,-0.49
2022-11-19T18:38:19.163Z,-0.45
2022-11-19T18:40:46.238Z,-0.38
2022-11-19T18:43:36.224Z,-0.41
2022-11-19T18:46:05.975Z,-0.37
2022-11-19T18:48:33.044Z,-0.27
2022-11-19T18:51:00.118Z,-0.19
2022-11-19T18:53:27.325Z,-0.22
2022-11-19T18:55:54.579Z,-0.27
2022-11-19T18:58:21.654Z,-0.34
2022-11-19T19:00:49.250Z,-0.36
2022-11-19T19:03:16.347Z,-0.38
2022-11-19T19:05:43.499Z,-0.32
2022-11-19T19:08:10.818Z,-0.34
2022-11-19T19:10:37.980Z,-0.32
2022-11-19T19:13:05.123Z,-0.37
2022-11-19T19:15:32.291Z,-0.38
2022-11-19T19:18:02.368Z,-0.37
2022-11-19T19:20:32.713Z,-0.42
2022-11-19T19:22:59.811Z,-0.37
2022-11-19T19:25:26.940Z,-0.48
2022-11-19T19:27:54.022Z,-0.45
2022-11-19T19:30:21.279Z,-0.46
2022-11-19T19:32:48.416Z,-0.51
2022-11-19T19:35:15.476Z,-0.53
2022-11-19T19:37:42.810Z,-0.52
2022-11-19T19:40:10.764Z,-0.54
2022-11-19T19:42:41.227Z,-0.48
2022-11-19T19:45:08.800Z,-0.38
2022-11-19T19:47:35.803Z,-0.33
2022-11-19T19:50:02.880Z,-0.23
2022-11-19T19:52:29.954Z,-0.21
2022-11-19T19:54:58.933Z,-0.21
2022-11-19T19:57:28.531Z,-0.26
2022-11-19T19:59:55.598Z,-0.20
2022-11-19T20:02:22.681Z,-0.30
2022-11-19T20:04:49.754Z,-0.38
2022-11-19T20:07:19.249Z,-0.39
2022-11-19T20:09:46.320Z,-0.43
2022-11-19T20:12:13.590Z,-0.48
2022-11-19T20:14:41.269Z,-0.42
2022-11-19T20:17:08.287Z,-0.35
2022-11-19T20:19:35.969Z,-0.36
2022-11-19T20:22:03.103Z,-0.37
2022-11-19T20:24:30.235Z,-0.41
2022-11-19T20:26:57.392Z,-0.44
2022-11-19T20:29:24.521Z,-0.45
2022-11-19T20:31:51.771Z,-0.36
2022-11-19T20:34:18.940Z,-0.35
2022-11-19T20:36:46.502Z,-0.34
2022-11-19T20:39:13.590Z,-0.31
2022-11-19T20:41:59.282Z,-0.24
2022-11-19T20:44:26.382Z,-0.31
2022-11-19T20:46:53.422Z,-0.35
2022-11-19T20:49:24.831Z,-0.31
2022-11-19T20:51:52.941Z,-0.32
2022-11-19T20:54:21.432Z,-0.30
2022-11-19T20:56:49.434Z,-0.34
2022-11-19T20:59:16.748Z,-0.29
2022-11-19T21:01:44.093Z,-0.37
2022-11-19T21:04:11.890Z,-0.35
2022-11-19T21:06:39.031Z,-0.31
2022-11-19T21:09:06.571Z,-0.30
2022-11-19T21:11:33.854Z,-0.30
2022-11-19T21:14:00.961Z,-0.28
2022-11-19T21:16:32.733Z,-0.19
2022-11-19T21:19:03.363Z,-0.14
2022-11-19T21:21:30.645Z,-0.10
2022-11-19T21:23:58.347Z,-0.10
2022-11-19T21:26:26.492Z,-0.10
2022-11-19T21:28:54.953Z,-0.16
2022-11-19T21:31:23.422Z,-0.14
2022-11-19T21:33:50.549Z,-0.11
2022-11-19T21:36:17.652Z,-0.20
2022-11-19T21:38:44.766Z,-0.25
2022-11-19T21:41:11.948Z,-0.18
2022-11-19T21:43:39.327Z,-0.20
2022-11-19T21:46:07.490Z,-0.12
2022-11-19T21:48:36.856Z,-0.15
2022-11-19T21:51:07.713Z,-0.21
2022-11-19T21:53:35.385Z,-0.25
2022-11-19T21:56:03.018Z,-0.28
2022-11-19T21:58:30.369Z,-0.24
2022-11-19T22:01:01.985Z,-0.16
2022-11-19T22:03:31.294Z,-0.19
2022-11-19T22:05:59.602Z,-0.15
2022-11-19T22:08:28.399Z,-0.14
2022-11-19T22:10:55.454Z,-0.13
2022-11-19T22:13:22.468Z,-0.17
2022-11-19T22:15:50.694Z,-0.18
2022-11-19T22:18:17.810Z,-0.17
2022-11-19T22:20:44.940Z,-0.18
2022-11-19T22:23:11.996Z,-0.18
2022-11-19T22:25:39.036Z,-0.17
2022-11-19T22:28:06.063Z,-0.16
2022-11-19T22:30:33.787Z,-0.15
2022-11-19T22:33:00.866Z,-0.19
2022-11-19T22:35:28.004Z,-0.22
2022-11-19T22:37:55.063Z,-0.21
2022-11-19T22:40:22.116Z,-0.16
2022-11-19T22:42:49.224Z,-0.17
2022-11-19T22:45:16.252Z,-0.18
2022-11-19T22:47:43.301Z,-0.11
2022-11-19T22:50:10.426Z,-0.08
2022-11-19T22:52:37.527Z,-0.06
2022-11-19T22:55:04.820Z,-0.08
2022-11-19T22:57:31.897Z,-0.04
2022-11-19T22:59:58.926Z,-0.02
2022-11-19T23:02:26.018Z,-0.01
2022-11-19T23:04:53.130Z,-0.04
2022-11-19T23:07:20.211Z,-0.07
2022-11-19T23:09:47.270Z,-0.05
2022-11-19T23:12:32.993Z,0.02
2022-11-19T23:15:00.077Z,0.05
2022-11-19T23:17:27.226Z,0.06
2022-11-19T23:19:54.313Z,0.07
2022-11-19T23:22:21.357Z,0.05
2022-11-19T23:24:48.451Z,0.03
2022-11-19T23:27:20.788Z,-0.01
2022-11-19T23:29:49.148Z,-0.04
2022-11-19T23:32:16.229Z,-0.01
2022-11-19T23:34:44.721Z,0.04
2022-11-19T23:37:12.164Z,0.00
2022-11-19T23:39:39.278Z,-0.05
2022-11-19T23:42:06.329Z,-0.05
2022-11-19T23:44:33.911Z,-0.04
2022-11-19T23:47:01.104Z,-0.07
2022-11-19T23:49:28.235Z,-0.06
2022-11-19T23:51:55.307Z,-0.04
2022-11-19T23:54:22.376Z,-0.03
2022-11-19T23:56:49.542Z,-0.04
2022-11-19T23:59:18.608Z,0.04
